LFCR/RDZ METAR and TAF weather

Enter ICAO airport designator
Station Type Date Time Source
LFCR METAR 2019/02/23 01:00 UTC NOAA

LFCR 230100Z AUTO 15004KT CAVOK 03/01 Q1028 NOSIG


Station Type Date Time Source
LFCR Decoded METAR 2019/02/23 01:00 UTC NOAA

Rodez, France (LFCR) 44-24N 002-29E 580M
Feb 22, 2019 - 08:00 PM EST / 2019.02.23 0100 UTC
Wind: from the SSE (150 degrees) at 5 MPH (4 KT):0
Visibility: greater than 7 mile(s):0
Temperature: 37 F (3 C)
Dew Point: 33 F (1 C)
Relative Humidity: 86%
Pressure (altimeter): 30.36 in. Hg (1028 hPa)
ob: LFCR 230100Z AUTO 15004KT CAVOK 03/01 Q1028 NOSIG
cycle: 1

Station Type Date Time Source
LFCR TAF 2019/02/22 18:21 UTC NOAA

TAF LFCR 221700Z 2218/2318 35010KT CAVOK
BECMG 2221/2223 VRB02KT


Example: see airport list